Etusivu
METAR-TAF:

METAR-TAF

Lentoasemat :

Roskilde, Tanska

Leveyspiiri: 55-35N, Pituuspiiri: 012-08E, korkeus merenpinnasta: 44 m

Tämänhetkinen sää

Tämä raportti tehtiin 25 minuuttia sitten, kello 21.50 UTC
Tuuli 3 kn lännestä
Lämpötila 8°C
Kosteus 76%
Ilmanpaine 1020 hPa
Näkyvyys 10 km tai enemmän

METAR: EKRK 082150Z AUTO 26003KT 9999 FEW110/// OVC130/// 08/04 Q1020

Aika: 00:15 (22:15 UTC)

Sääennuste

Tämä raportti tehtiin 1 tunti ja 52 minuuttia sitten, kello 20.23 UTC
Ennuste voimassa 08. päivästä klo 21 UTC - 09. päivään klo 06 UTC
Tuuli 5 kn etelästä/kaakosta
Näkyvyys 10 km tai enemmän
Muutamia pilviä 4000 ft:n korkeudessa
Tulossa
08. päivästä klo 21 UTC - 08. päivään klo 24 UTC
Tuuli 10 kn lännestä/luoteesta
Ajoittain
09. päivästä klo 04 UTC - 09. päivään klo 06 UTC
Hajonneita pilviä 800 ft:n korkeudessa

TAF: EKRK 082023Z 0821/0906 15005KT 9999 FEW040 BECMG 0821/0824 29010KT TEMPO 0904/0906 BKN008

Säähavainnot ja -ennusteet yli 4000 lentoasemalta (METAR- ja TAF-raportit).

Käytössä olevat sääasemat on merkitty karttaan keltaisilla ja punaisilla pisteillä.

Aseta hiiri pisteen päälle nähdäksesi sääaseman nimen.

Klikkaa sitten nähdäksesi säähavainnot ja -ennusteet.

Kartan vaihtaminen: klikkaa mustalla rastilla varustettuja vihreitä pisteitä, niin voit zoomata sisään; viivalla varustettua vihreää pistettä, niin voit zoomata ulos tai vihreitä nuolia, niin pääset viereisille kartoille.


METAR-TAF: